sensor_id;sensor_type;location;lat;lon;timestamp;P1;durP1;ratioP1;P2;durP2;ratioP2
3971;SDS011;2000;47.572;14.202;2023-03-01T00:01:28;9.47;;;5.70;;
3971;SDS011;2000;47.572;14.202;2023-03-01T00:03:56;7.77;;;4.90;;
3971;SDS011;2000;47.572;14.202;2023-03-01T00:06:24;15.60;;;4.47;;
3971;SDS011;2000;47.572;14.202;2023-03-01T00:08:51;8.50;;;4.60;;
3971;SDS011;2000;47.572;14.202;2023-03-01T00:13:46;8.53;;;4.37;;
3971;SDS011;2000;47.572;14.202;2023-03-01T00:16:15;7.80;;;3.83;;
3971;SDS011;2000;47.572;14.202;2023-03-01T00:18:43;6.43;;;4.23;;
3971;SDS011;2000;47.572;14.202;2023-03-01T00:21:10;8.27;;;4.13;;
3971;SDS011;2000;47.572;14.202;2023-03-01T00:23:37;6.73;;;4.20;;
3971;SDS011;2000;47.572;14.202;2023-03-01T00:26:12;8.47;;;5.10;;
3971;SDS011;2000;47.572;14.202;2023-03-01T00:28:39;10.80;;;4.87;;
3971;SDS011;2000;47.572;14.202;2023-03-01T00:31:07;13.17;;;4.80;;
3971;SDS011;2000;47.572;14.202;2023-03-01T00:33:36;5.90;;;4.10;;
3971;SDS011;2000;47.572;14.202;2023-03-01T00:36:03;16.37;;;4.87;;
3971;SDS011;2000;47.572;14.202;2023-03-01T00:38:30;8.23;;;4.03;;
3971;SDS011;2000;47.572;14.202;2023-03-01T00:41:02;7.23;;;3.50;;
3971;SDS011;2000;47.572;14.202;2023-03-01T00:43:36;9.43;;;4.50;;
3971;SDS011;2000;47.572;14.202;2023-03-01T00:46:04;5.27;;;3.27;;
3971;SDS011;2000;47.572;14.202;2023-03-01T00:48:33;6.63;;;4.20;;
3971;SDS011;2000;47.572;14.202;2023-03-01T00:51:04;12.17;;;5.20;;
3971;SDS011;2000;47.572;14.202;2023-03-01T00:53:36;8.27;;;4.13;;
3971;SDS011;2000;47.572;14.202;2023-03-01T00:56:04;7.27;;;4.70;;
3971;SDS011;2000;47.572;14.202;2023-03-01T00:58:31;6.27;;;3.97;;
3971;SDS011;2000;47.572;14.202;2023-03-01T01:00:58;8.03;;;4.20;;
3971;SDS011;2000;47.572;14.202;2023-03-01T01:03:25;5.17;;;2.93;;
3971;SDS011;2000;47.572;14.202;2023-03-01T01:05:52;13.00;;;5.10;;
3971;SDS011;2000;47.572;14.202;2023-03-01T01:08:20;17.00;;;5.73;;
3971;SDS011;2000;47.572;14.202;2023-03-01T01:10:47;10.73;;;4.90;;
3971;SDS011;2000;47.572;14.202;2023-03-01T01:13:14;7.60;;;4.17;;
3971;SDS011;2000;47.572;14.202;2023-03-01T01:15:40;7.70;;;4.43;;
3971;SDS011;2000;47.572;14.202;2023-03-01T01:18:07;7.30;;;4.23;;
3971;SDS011;2000;47.572;14.202;2023-03-01T01:20:35;8.90;;;4.67;;
3971;SDS011;2000;47.572;14.202;2023-03-01T01:23:04;16.07;;;6.20;;
3971;SDS011;2000;47.572;14.202;2023-03-01T01:25:33;10.27;;;5.93;;
3971;SDS011;2000;47.572;14.202;2023-03-01T01:28:02;14.37;;;6.63;;
3971;SDS011;2000;47.572;14.202;2023-03-01T01:30:29;14.13;;;6.47;;
3971;SDS011;2000;47.572;14.202;2023-03-01T01:32:55;20.07;;;5.90;;
3971;SDS011;2000;47.572;14.202;2023-03-01T01:35:22;14.77;;;6.30;;
3971;SDS011;2000;47.572;14.202;2023-03-01T01:37:49;16.73;;;6.47;;
3971;SDS011;2000;47.572;14.202;2023-03-01T01:40:16;14.00;;;5.90;;
3971;SDS011;2000;47.572;14.202;2023-03-01T01:42:42;10.63;;;6.20;;
3971;SDS011;2000;47.572;14.202;2023-03-01T01:47:59;8.13;;;5.30;;
3971;SDS011;2000;47.572;14.202;2023-03-01T01:50:28;14.47;;;5.63;;
3971;SDS011;2000;47.572;14.202;2023-03-01T01:53:05;12.43;;;5.00;;
3971;SDS011;2000;47.572;14.202;2023-03-01T01:55:33;7.50;;;4.87;;
3971;SDS011;2000;47.572;14.202;2023-03-01T01:58:03;8.73;;;4.70;;
3971;SDS011;2000;47.572;14.202;2023-03-01T02:00:32;8.87;;;4.90;;
3971;SDS011;2000;47.572;14.202;2023-03-01T02:03:04;8.73;;;4.80;;
3971;SDS011;2000;47.572;14.202;2023-03-01T02:05:38;13.70;;;5.67;;
3971;SDS011;2000;47.572;14.202;2023-03-01T02:08:06;10.20;;;4.53;;
3971;SDS011;2000;47.572;14.202;2023-03-01T02:10:34;8.00;;;4.80;;
3971;SDS011;2000;47.572;14.202;2023-03-01T02:13:01;7.63;;;4.93;;
3971;SDS011;2000;47.572;14.202;2023-03-01T02:15:32;9.87;;;4.60;;
3971;SDS011;2000;47.572;14.202;2023-03-01T02:18:01;8.73;;;4.23;;
3971;SDS011;2000;47.572;14.202;2023-03-01T02:23:07;6.13;;;3.97;;
3971;SDS011;2000;47.572;14.202;2023-03-01T02:31:00;5.60;;;4.30;;
3971;SDS011;2000;47.572;14.202;2023-03-01T02:33:46;10.10;;;4.83;;
3971;SDS011;2000;47.572;14.202;2023-03-01T02:39:22;9.80;;;3.57;;
3971;SDS011;2000;47.572;14.202;2023-03-01T02:41:53;8.03;;;4.07;;
3971;SDS011;2000;47.572;14.202;2023-03-01T02:44:21;6.83;;;4.60;;
3971;SDS011;2000;47.572;14.202;2023-03-01T02:46:50;6.30;;;3.40;;
3971;SDS011;2000;47.572;14.202;2023-03-01T02:49:23;8.90;;;4.40;;
3971;SDS011;2000;47.572;14.202;2023-03-01T02:57:26;8.97;;;4.37;;
3971;SDS011;2000;47.572;14.202;2023-03-01T02:59:54;7.80;;;5.10;;
3971;SDS011;2000;47.572;14.202;2023-03-01T03:02:26;10.87;;;5.00;;
3971;SDS011;2000;47.572;14.202;2023-03-01T03:05:04;7.63;;;4.70;;
3971;SDS011;2000;47.572;14.202;2023-03-01T03:07:36;12.43;;;4.53;;
3971;SDS011;2000;47.572;14.202;2023-03-01T03:10:06;8.43;;;4.33;;
3971;SDS011;2000;47.572;14.202;2023-03-01T03:12:35;9.87;;;4.97;;
3971;SDS011;2000;47.572;14.202;2023-03-01T03:15:02;15.13;;;6.10;;
3971;SDS011;2000;47.572;14.202;2023-03-01T03:17:38;10.33;;;5.37;;
3971;SDS011;2000;47.572;14.202;2023-03-01T03:20:06;10.67;;;5.33;;
3971;SDS011;2000;47.572;14.202;2023-03-01T03:22:38;15.50;;;5.50;;
3971;SDS011;2000;47.572;14.202;2023-03-01T03:25:06;10.33;;;5.70;;
3971;SDS011;2000;47.572;14.202;2023-03-01T03:27:37;8.70;;;4.90;;
3971;SDS011;2000;47.572;14.202;2023-03-01T03:30:05;8.33;;;4.93;;
3971;SDS011;2000;47.572;14.202;2023-03-01T03:32:38;12.50;;;5.80;;
3971;SDS011;2000;47.572;14.202;2023-03-01T03:35:06;13.93;;;5.17;;
3971;SDS011;2000;47.572;14.202;2023-03-01T03:37:38;13.53;;;5.40;;
3971;SDS011;2000;47.572;14.202;2023-03-01T03:40:25;13.27;;;5.20;;
3971;SDS011;2000;47.572;14.202;2023-03-01T03:42:52;11.87;;;4.80;;
3971;SDS011;2000;47.572;14.202;2023-03-01T03:45:19;9.80;;;5.23;;
3971;SDS011;2000;47.572;14.202;2023-03-01T03:47:46;10.10;;;4.90;;
3971;SDS011;2000;47.572;14.202;2023-03-01T03:50:13;10.10;;;5.20;;
3971;SDS011;2000;47.572;14.202;2023-03-01T03:52:41;9.50;;;4.33;;
3971;SDS011;2000;47.572;14.202;2023-03-01T03:55:09;7.50;;;4.90;;
3971;SDS011;2000;47.572;14.202;2023-03-01T03:57:41;6.77;;;4.80;;
3971;SDS011;2000;47.572;14.202;2023-03-01T04:00:09;8.70;;;4.97;;
3971;SDS011;2000;47.572;14.202;2023-03-01T04:02:39;11.17;;;6.07;;
3971;SDS011;2000;47.572;14.202;2023-03-01T04:05:07;10.97;;;5.30;;
3971;SDS011;2000;47.572;14.202;2023-03-01T04:07:35;15.30;;;5.20;;
3971;SDS011;2000;47.572;14.202;2023-03-01T04:10:06;8.80;;;4.90;;
3971;SDS011;2000;47.572;14.202;2023-03-01T04:12:35;10.50;;;6.50;;
3971;SDS011;2000;47.572;14.202;2023-03-01T04:15:03;8.80;;;6.23;;
3971;SDS011;2000;47.572;14.202;2023-03-01T04:17:40;11.07;;;6.00;;
3971;SDS011;2000;47.572;14.202;2023-03-01T04:20:11;13.13;;;5.80;;
3971;SDS011;2000;47.572;14.202;2023-03-01T04:23:01;13.67;;;5.40;;
3971;SDS011;2000;47.572;14.202;2023-03-01T04:25:37;10.83;;;4.40;;
3971;SDS011;2000;47.572;14.202;2023-03-01T04:28:21;8.63;;;4.27;;
3971;SDS011;2000;47.572;14.202;2023-03-01T04:30:51;12.33;;;5.40;;
3971;SDS011;2000;47.572;14.202;2023-03-01T04:33:19;11.10;;;5.23;;
3971;SDS011;2000;47.572;14.202;2023-03-01T04:35:46;8.00;;;4.50;;
3971;SDS011;2000;47.572;14.202;2023-03-01T04:38:16;7.57;;;5.20;;
3971;SDS011;2000;47.572;14.202;2023-03-01T04:40:46;10.43;;;4.50;;
3971;SDS011;2000;47.572;14.202;2023-03-01T04:43:13;8.13;;;4.90;;
3971;SDS011;2000;47.572;14.202;2023-03-01T04:45:41;9.20;;;5.10;;
3971;SDS011;2000;47.572;14.202;2023-03-01T04:48:08;8.73;;;4.90;;
3971;SDS011;2000;47.572;14.202;2023-03-01T04:50:35;11.00;;;4.90;;
3971;SDS011;2000;47.572;14.202;2023-03-01T04:53:02;6.73;;;4.43;;
3971;SDS011;2000;47.572;14.202;2023-03-01T04:55:29;8.10;;;4.90;;
3971;SDS011;2000;47.572;14.202;2023-03-01T04:57:56;14.20;;;5.90;;
3971;SDS011;2000;47.572;14.202;2023-03-01T05:00:23;10.93;;;5.33;;
3971;SDS011;2000;47.572;14.202;2023-03-01T05:02:54;8.30;;;5.17;;
3971;SDS011;2000;47.572;14.202;2023-03-01T05:05:28;9.47;;;5.80;;
3971;SDS011;2000;47.572;14.202;2023-03-01T05:08:03;10.10;;;4.90;;
3971;SDS011;2000;47.572;14.202;2023-03-01T05:10:32;9.33;;;4.60;;
3971;SDS011;2000;47.572;14.202;2023-03-01T05:13:01;8.17;;;4.10;;
3971;SDS011;2000;47.572;14.202;2023-03-01T05:15:30;7.27;;;4.97;;
3971;SDS011;2000;47.572;14.202;2023-03-01T05:17:58;12.97;;;5.73;;
3971;SDS011;2000;47.572;14.202;2023-03-01T05:20:26;15.40;;;6.73;;
3971;SDS011;2000;47.572;14.202;2023-03-01T05:22:55;11.73;;;5.13;;
3971;SDS011;2000;47.572;14.202;2023-03-01T05:25:26;13.27;;;6.27;;
3971;SDS011;2000;47.572;14.202;2023-03-01T05:27:52;7.27;;;5.33;;
3971;SDS011;2000;47.572;14.202;2023-03-01T05:30:19;9.70;;;5.30;;
3971;SDS011;2000;47.572;14.202;2023-03-01T05:32:47;9.60;;;4.60;;
3971;SDS011;2000;47.572;14.202;2023-03-01T05:35:16;6.77;;;4.43;;
3971;SDS011;2000;47.572;14.202;2023-03-01T05:37:45;12.37;;;5.27;;
3971;SDS011;2000;47.572;14.202;2023-03-01T05:40:14;12.33;;;5.23;;
3971;SDS011;2000;47.572;14.202;2023-03-01T05:42:46;9.00;;;4.77;;
3971;SDS011;2000;47.572;14.202;2023-03-01T05:45:14;11.30;;;6.00;;
3971;SDS011;2000;47.572;14.202;2023-03-01T05:47:42;12.80;;;5.20;;
3971;SDS011;2000;47.572;14.202;2023-03-01T05:52:48;9.83;;;5.10;;
3971;SDS011;2000;47.572;14.202;2023-03-01T05:55:21;8.00;;;4.90;;
3971;SDS011;2000;47.572;14.202;2023-03-01T05:57:48;13.37;;;5.90;;
3971;SDS011;2000;47.572;14.202;2023-03-01T06:00:17;10.50;;;5.43;;
3971;SDS011;2000;47.572;14.202;2023-03-01T06:02:45;12.90;;;8.30;;
3971;SDS011;2000;47.572;14.202;2023-03-01T06:05:12;16.23;;;6.40;;
3971;SDS011;2000;47.572;14.202;2023-03-01T06:07:39;12.57;;;6.63;;
3971;SDS011;2000;47.572;14.202;2023-03-01T06:10:07;10.47;;;6.60;;
3971;SDS011;2000;47.572;14.202;2023-03-01T06:12:36;20.07;;;8.00;;
3971;SDS011;2000;47.572;14.202;2023-03-01T06:15:04;21.67;;;8.10;;
3971;SDS011;2000;47.572;14.202;2023-03-01T06:17:32;15.87;;;8.13;;
3971;SDS011;2000;47.572;14.202;2023-03-01T06:20:04;23.60;;;9.50;;
3971;SDS011;2000;47.572;14.202;2023-03-01T06:22:32;13.73;;;6.63;;
3971;SDS011;2000;47.572;14.202;2023-03-01T06:24:59;14.27;;;6.00;;
3971;SDS011;2000;47.572;14.202;2023-03-01T06:27:26;14.43;;;6.80;;
3971;SDS011;2000;47.572;14.202;2023-03-01T06:29:53;12.00;;;5.90;;
3971;SDS011;2000;47.572;14.202;2023-03-01T06:32:20;13.30;;;5.57;;
3971;SDS011;2000;47.572;14.202;2023-03-01T06:34:47;10.07;;;5.27;;
3971;SDS011;2000;47.572;14.202;2023-03-01T06:37:13;12.73;;;4.47;;
3971;SDS011;2000;47.572;14.202;2023-03-01T06:39:40;11.70;;;5.87;;
3971;SDS011;2000;47.572;14.202;2023-03-01T06:42:07;26.20;;;7.20;;
3971;SDS011;2000;47.572;14.202;2023-03-01T06:44:36;12.83;;;6.80;;
3971;SDS011;2000;47.572;14.202;2023-03-01T06:47:04;12.67;;;5.77;;
3971;SDS011;2000;47.572;14.202;2023-03-01T06:49:31;10.60;;;5.70;;
3971;SDS011;2000;47.572;14.202;2023-03-01T06:51:57;22.87;;;6.07;;
3971;SDS011;2000;47.572;14.202;2023-03-01T06:54:24;15.33;;;6.80;;
3971;SDS011;2000;47.572;14.202;2023-03-01T06:56:51;13.40;;;5.50;;
3971;SDS011;2000;47.572;14.202;2023-03-01T06:59:18;12.47;;;5.23;;
3971;SDS011;2000;47.572;14.202;2023-03-01T07:01:45;14.60;;;4.97;;
3971;SDS011;2000;47.572;14.202;2023-03-01T07:04:12;9.53;;;5.57;;
3971;SDS011;2000;47.572;14.202;2023-03-01T07:06:40;8.90;;;4.97;;
3971;SDS011;2000;47.572;14.202;2023-03-01T07:09:07;21.97;;;6.40;;
3971;SDS011;2000;47.572;14.202;2023-03-01T07:11:34;9.97;;;5.37;;
3971;SDS011;2000;47.572;14.202;2023-03-01T07:14:00;10.43;;;5.60;;
3971;SDS011;2000;47.572;14.202;2023-03-01T07:16:27;21.80;;;8.30;;
3971;SDS011;2000;47.572;14.202;2023-03-01T07:18:54;33.30;;;15.53;;
3971;SDS011;2000;47.572;14.202;2023-03-01T07:21:21;30.80;;;8.00;;
3971;SDS011;2000;47.572;14.202;2023-03-01T07:23:48;8.07;;;5.67;;
3971;SDS011;2000;47.572;14.202;2023-03-01T07:26:15;7.20;;;3.90;;
3971;SDS011;2000;47.572;14.202;2023-03-01T07:28:42;10.73;;;4.93;;
3971;SDS011;2000;47.572;14.202;2023-03-01T07:31:08;19.27;;;8.83;;
3971;SDS011;2000;47.572;14.202;2023-03-01T07:33:35;21.27;;;8.07;;
3971;SDS011;2000;47.572;14.202;2023-03-01T07:36:02;15.97;;;6.57;;
3971;SDS011;2000;47.572;14.202;2023-03-01T07:38:30;12.80;;;5.43;;
3971;SDS011;2000;47.572;14.202;2023-03-01T07:40:57;7.53;;;5.00;;
3971;SDS011;2000;47.572;14.202;2023-03-01T07:43:28;9.40;;;5.50;;
3971;SDS011;2000;47.572;14.202;2023-03-01T07:46:02;11.43;;;6.20;;
3971;SDS011;2000;47.572;14.202;2023-03-01T07:48:30;12.30;;;5.50;;
3971;SDS011;2000;47.572;14.202;2023-03-01T07:50:57;6.77;;;4.63;;
3971;SDS011;2000;47.572;14.202;2023-03-01T07:53:26;13.50;;;4.60;;
3971;SDS011;2000;47.572;14.202;2023-03-01T07:56:11;13.00;;;5.50;;
3971;SDS011;2000;47.572;14.202;2023-03-01T07:58:40;13.20;;;5.57;;
3971;SDS011;2000;47.572;14.202;2023-03-01T08:01:08;12.17;;;6.30;;
3971;SDS011;2000;47.572;14.202;2023-03-01T08:03:37;12.60;;;5.87;;
3971;SDS011;2000;47.572;14.202;2023-03-01T08:06:05;7.07;;;4.40;;
3971;SDS011;2000;47.572;14.202;2023-03-01T08:08:33;7.77;;;5.03;;
3971;SDS011;2000;47.572;14.202;2023-03-01T08:11:01;9.33;;;5.20;;
3971;SDS011;2000;47.572;14.202;2023-03-01T08:13:29;9.73;;;4.60;;
3971;SDS011;2000;47.572;14.202;2023-03-01T08:16:02;11.87;;;5.20;;
3971;SDS011;2000;47.572;14.202;2023-03-01T08:18:33;7.17;;;4.63;;
3971;SDS011;2000;47.572;14.202;2023-03-01T08:21:04;14.93;;;6.33;;
3971;SDS011;2000;47.572;14.202;2023-03-01T08:23:34;21.97;;;8.60;;
3971;SDS011;2000;47.572;14.202;2023-03-01T08:28:36;13.87;;;8.07;;
3971;SDS011;2000;47.572;14.202;2023-03-01T08:31:03;17.73;;;8.10;;
3971;SDS011;2000;47.572;14.202;2023-03-01T08:33:39;31.70;;;9.43;;
3971;SDS011;2000;47.572;14.202;2023-03-01T08:36:06;22.07;;;9.27;;
3971;SDS011;2000;47.572;14.202;2023-03-01T08:38:33;20.23;;;8.40;;
3971;SDS011;2000;47.572;14.202;2023-03-01T08:41:01;15.77;;;7.97;;
3971;SDS011;2000;47.572;14.202;2023-03-01T08:43:29;20.37;;;9.27;;
3971;SDS011;2000;47.572;14.202;2023-03-01T08:45:56;14.50;;;8.03;;
3971;SDS011;2000;47.572;14.202;2023-03-01T08:48:23;18.03;;;9.50;;
3971;SDS011;2000;47.572;14.202;2023-03-01T08:50:50;16.90;;;9.67;;
3971;SDS011;2000;47.572;14.202;2023-03-01T08:53:17;18.07;;;8.87;;
3971;SDS011;2000;47.572;14.202;2023-03-01T08:55:43;18.37;;;8.83;;
3971;SDS011;2000;47.572;14.202;2023-03-01T08:58:10;16.53;;;8.63;;
3971;SDS011;2000;47.572;14.202;2023-03-01T09:00:37;18.50;;;8.00;;
3971;SDS011;2000;47.572;14.202;2023-03-01T09:03:04;31.53;;;12.23;;
3971;SDS011;2000;47.572;14.202;2023-03-01T09:05:32;28.77;;;11.07;;
3971;SDS011;2000;47.572;14.202;2023-03-01T09:07:59;16.57;;;9.00;;
3971;SDS011;2000;47.572;14.202;2023-03-01T09:10:26;23.37;;;8.83;;
3971;SDS011;2000;47.572;14.202;2023-03-01T09:12:53;20.10;;;8.50;;
3971;SDS011;2000;47.572;14.202;2023-03-01T09:15:20;22.47;;;10.30;;
3971;SDS011;2000;47.572;14.202;2023-03-01T09:17:46;46.27;;;14.53;;
3971;SDS011;2000;47.572;14.202;2023-03-01T09:20:13;17.67;;;7.87;;
3971;SDS011;2000;47.572;14.202;2023-03-01T09:22:40;17.07;;;9.07;;
3971;SDS011;2000;47.572;14.202;2023-03-01T09:25:07;15.70;;;8.43;;
3971;SDS011;2000;47.572;14.202;2023-03-01T09:27:34;41.87;;;11.50;;
3971;SDS011;2000;47.572;14.202;2023-03-01T09:30:01;18.40;;;9.03;;
3971;SDS011;2000;47.572;14.202;2023-03-01T09:32:29;14.80;;;7.50;;
3971;SDS011;2000;47.572;14.202;2023-03-01T09:34:57;18.53;;;7.53;;
3971;SDS011;2000;47.572;14.202;2023-03-01T09:37:34;13.73;;;8.30;;
3971;SDS011;2000;47.572;14.202;2023-03-01T09:40:02;14.70;;;7.70;;
3971;SDS011;2000;47.572;14.202;2023-03-01T09:42:34;27.40;;;8.90;;
3971;SDS011;2000;47.572;14.202;2023-03-01T09:45:05;26.30;;;9.40;;
3971;SDS011;2000;47.572;14.202;2023-03-01T09:47:34;13.90;;;8.10;;
3971;SDS011;2000;47.572;14.202;2023-03-01T09:52:46;20.80;;;9.30;;
3971;SDS011;2000;47.572;14.202;2023-03-01T09:55:20;17.90;;;7.87;;
3971;SDS011;2000;47.572;14.202;2023-03-01T09:57:57;26.33;;;8.50;;
3971;SDS011;2000;47.572;14.202;2023-03-01T10:05:57;22.63;;;8.60;;
3971;SDS011;2000;47.572;14.202;2023-03-01T10:08:33;16.93;;;7.97;;
3971;SDS011;2000;47.572;14.202;2023-03-01T10:11:03;15.73;;;6.60;;
3971;SDS011;2000;47.572;14.202;2023-03-01T10:13:42;14.97;;;8.60;;
3971;SDS011;2000;47.572;14.202;2023-03-01T10:16:16;24.63;;;7.03;;
3971;SDS011;2000;47.572;14.202;2023-03-01T10:18:59;13.40;;;6.60;;
3971;SDS011;2000;47.572;14.202;2023-03-01T10:21:27;23.00;;;6.97;;
3971;SDS011;2000;47.572;14.202;2023-03-01T10:23:57;17.57;;;7.47;;
3971;SDS011;2000;47.572;14.202;2023-03-01T10:29:16;19.17;;;8.80;;
3971;SDS011;2000;47.572;14.202;2023-03-01T10:34:17;21.80;;;8.50;;
3971;SDS011;2000;47.572;14.202;2023-03-01T10:36:53;16.33;;;7.70;;
3971;SDS011;2000;47.572;14.202;2023-03-01T10:39:23;13.33;;;6.63;;
3971;SDS011;2000;47.572;14.202;2023-03-01T10:42:38;13.57;;;6.07;;
3971;SDS011;2000;47.572;14.202;2023-03-01T10:44:48;9.70;;;5.13;;
3971;SDS011;2000;47.572;14.202;2023-03-01T10:49:51;9.80;;;4.90;;
3971;SDS011;2000;47.572;14.202;2023-03-01T10:52:21;11.27;;;5.63;;
3971;SDS011;2000;47.572;14.202;2023-03-01T10:54:54;13.70;;;7.70;;
3971;SDS011;2000;47.572;14.202;2023-03-01T10:57:33;10.13;;;5.83;;
3971;SDS011;2000;47.572;14.202;2023-03-01T11:00:18;17.80;;;6.50;;
3971;SDS011;2000;47.572;14.202;2023-03-01T11:02:49;15.40;;;7.63;;
3971;SDS011;2000;47.572;14.202;2023-03-01T11:05:20;14.00;;;6.13;;
3971;SDS011;2000;47.572;14.202;2023-03-01T11:07:56;17.00;;;7.77;;
3971;SDS011;2000;47.572;14.202;2023-03-01T11:12:52;14.67;;;5.97;;
3971;SDS011;2000;47.572;14.202;2023-03-01T11:15:23;11.60;;;6.47;;
3971;SDS011;2000;47.572;14.202;2023-03-01T11:17:53;46.97;;;8.40;;
3971;SDS011;2000;47.572;14.202;2023-03-01T11:20:38;66.37;;;10.90;;
3971;SDS011;2000;47.572;14.202;2023-03-01T11:23:14;14.23;;;6.53;;
3971;SDS011;2000;47.572;14.202;2023-03-01T11:25:42;15.83;;;6.00;;
3971;SDS011;2000;47.572;14.202;2023-03-01T11:28:12;38.37;;;9.47;;
3971;SDS011;2000;47.572;14.202;2023-03-01T11:33:39;15.57;;;6.97;;
3971;SDS011;2000;47.572;14.202;2023-03-01T11:39:04;19.67;;;8.07;;
3971;SDS011;2000;47.572;14.202;2023-03-01T11:41:40;18.50;;;8.10;;
3971;SDS011;2000;47.572;14.202;2023-03-01T11:44:18;12.50;;;7.37;;
3971;SDS011;2000;47.572;14.202;2023-03-01T11:47:03;11.70;;;6.20;;
3971;SDS011;2000;47.572;14.202;2023-03-01T11:55:43;10.00;;;5.73;;
3971;SDS011;2000;47.572;14.202;2023-03-01T12:11:55;26.63;;;7.10;;
3971;SDS011;2000;47.572;14.202;2023-03-01T12:22:50;26.87;;;8.60;;
3971;SDS011;2000;47.572;14.202;2023-03-01T12:25:21;17.07;;;6.17;;
3971;SDS011;2000;47.572;14.202;2023-03-01T12:36:22;9.50;;;5.43;;
3971;SDS011;2000;47.572;14.202;2023-03-01T12:42:27;8.57;;;4.73;;
3971;SDS011;2000;47.572;14.202;2023-03-01T12:45:32;11.53;;;6.07;;
3971;SDS011;2000;47.572;14.202;2023-03-01T12:53:19;18.60;;;5.80;;
3971;SDS011;2000;47.572;14.202;2023-03-01T12:55:48;22.43;;;6.37;;
3971;SDS011;2000;47.572;14.202;2023-03-01T12:58:27;14.07;;;6.10;;
3971;SDS011;2000;47.572;14.202;2023-03-01T13:04:38;14.73;;;6.83;;
3971;SDS011;2000;47.572;14.202;2023-03-01T13:07:29;18.63;;;5.87;;
3971;SDS011;2000;47.572;14.202;2023-03-01T13:12:50;14.53;;;5.73;;
3971;SDS011;2000;47.572;14.202;2023-03-01T13:17:49;12.00;;;5.53;;
3971;SDS011;2000;47.572;14.202;2023-03-01T13:20:18;19.57;;;7.90;;
3971;SDS011;2000;47.572;14.202;2023-03-01T13:22:46;8.27;;;5.10;;
3971;SDS011;2000;47.572;14.202;2023-03-01T13:25:20;21.13;;;7.50;;
3971;SDS011;2000;47.572;14.202;2023-03-01T13:27:50;16.83;;;7.30;;
3971;SDS011;2000;47.572;14.202;2023-03-01T13:34:01;27.93;;;8.63;;
3971;SDS011;2000;47.572;14.202;2023-03-01T13:35:59;28.37;;;11.00;;
3971;SDS011;2000;47.572;14.202;2023-03-01T13:38:44;22.50;;;9.40;;
3971;SDS011;2000;47.572;14.202;2023-03-01T13:41:16;21.60;;;9.80;;
3971;SDS011;2000;47.572;14.202;2023-03-01T13:43:50;16.80;;;8.20;;
3971;SDS011;2000;47.572;14.202;2023-03-01T13:46:19;15.50;;;7.37;;
3971;SDS011;2000;47.572;14.202;2023-03-01T13:48:51;8.73;;;5.63;;
3971;SDS011;2000;47.572;14.202;2023-03-01T13:51:21;22.87;;;5.30;;
3971;SDS011;2000;47.572;14.202;2023-03-01T13:54:01;14.77;;;6.07;;
3971;SDS011;2000;47.572;14.202;2023-03-01T13:56:28;28.53;;;8.10;;
3971;SDS011;2000;47.572;14.202;2023-03-01T13:59:01;12.80;;;5.30;;
3971;SDS011;2000;47.572;14.202;2023-03-01T14:01:34;13.67;;;4.40;;
3971;SDS011;2000;47.572;14.202;2023-03-01T14:04:03;13.97;;;5.53;;
3971;SDS011;2000;47.572;14.202;2023-03-01T14:06:41;12.33;;;5.87;;
3971;SDS011;2000;47.572;14.202;2023-03-01T14:14:38;16.53;;;5.63;;
3971;SDS011;2000;47.572;14.202;2023-03-01T14:17:25;14.73;;;7.20;;
3971;SDS011;2000;47.572;14.202;2023-03-01T14:19:58;15.13;;;6.30;;
3971;SDS011;2000;47.572;14.202;2023-03-01T14:22:32;20.70;;;7.33;;
3971;SDS011;2000;47.572;14.202;2023-03-01T14:25:00;23.30;;;5.70;;
3971;SDS011;2000;47.572;14.202;2023-03-01T14:30:51;24.50;;;8.53;;
3971;SDS011;2000;47.572;14.202;2023-03-01T14:33:21;16.20;;;7.97;;
3971;SDS011;2000;47.572;14.202;2023-03-01T14:35:53;23.60;;;7.10;;
3971;SDS011;2000;47.572;14.202;2023-03-01T14:38:38;20.40;;;8.20;;
3971;SDS011;2000;47.572;14.202;2023-03-01T14:41:14;24.70;;;6.37;;
3971;SDS011;2000;47.572;14.202;2023-03-01T14:43:43;15.50;;;6.00;;
3971;SDS011;2000;47.572;14.202;2023-03-01T14:46:18;13.40;;;6.13;;
3971;SDS011;2000;47.572;14.202;2023-03-01T14:48:47;14.23;;;6.93;;
3971;SDS011;2000;47.572;14.202;2023-03-01T14:51:15;21.53;;;6.93;;
3971;SDS011;2000;47.572;14.202;2023-03-01T14:53:42;18.90;;;6.57;;
3971;SDS011;2000;47.572;14.202;2023-03-01T14:56:16;11.37;;;5.60;;
3971;SDS011;2000;47.572;14.202;2023-03-01T14:58:43;35.30;;;7.93;;
3971;SDS011;2000;47.572;14.202;2023-03-01T15:01:12;18.00;;;7.93;;
3971;SDS011;2000;47.572;14.202;2023-03-01T15:03:41;11.93;;;5.33;;
3971;SDS011;2000;47.572;14.202;2023-03-01T15:06:10;20.30;;;6.60;;
3971;SDS011;2000;47.572;14.202;2023-03-01T15:08:47;35.87;;;6.90;;
3971;SDS011;2000;47.572;14.202;2023-03-01T15:11:21;29.50;;;6.30;;
3971;SDS011;2000;47.572;14.202;2023-03-01T15:13:56;11.13;;;4.40;;
3971;SDS011;2000;47.572;14.202;2023-03-01T15:16:24;13.53;;;4.80;;
3971;SDS011;2000;47.572;14.202;2023-03-01T15:19:00;23.93;;;7.30;;
3971;SDS011;2000;47.572;14.202;2023-03-01T15:21:36;22.77;;;6.67;;
3971;SDS011;2000;47.572;14.202;2023-03-01T15:24:15;9.17;;;4.83;;
3971;SDS011;2000;47.572;14.202;2023-03-01T15:29:24;27.87;;;7.90;;
3971;SDS011;2000;47.572;14.202;2023-03-01T15:32:03;13.67;;;6.10;;
3971;SDS011;2000;47.572;14.202;2023-03-01T15:34:33;13.07;;;5.27;;
3971;SDS011;2000;47.572;14.202;2023-03-01T15:37:02;18.37;;;5.93;;
3971;SDS011;2000;47.572;14.202;2023-03-01T15:39:36;19.70;;;4.20;;
3971;SDS011;2000;47.572;14.202;2023-03-01T15:42:17;16.23;;;6.60;;
3971;SDS011;2000;47.572;14.202;2023-03-01T15:47:38;14.63;;;6.33;;
3971;SDS011;2000;47.572;14.202;2023-03-01T15:50:11;15.23;;;6.47;;
3971;SDS011;2000;47.572;14.202;2023-03-01T15:52:59;9.57;;;5.20;;
3971;SDS011;2000;47.572;14.202;2023-03-01T15:55:28;20.43;;;5.37;;
3971;SDS011;2000;47.572;14.202;2023-03-01T15:58:00;18.77;;;7.77;;
3971;SDS011;2000;47.572;14.202;2023-03-01T16:00:27;24.33;;;8.00;;
3971;SDS011;2000;47.572;14.202;2023-03-01T16:02:55;19.00;;;8.90;;
3971;SDS011;2000;47.572;14.202;2023-03-01T16:05:23;31.47;;;16.67;;
3971;SDS011;2000;47.572;14.202;2023-03-01T16:07:51;35.23;;;15.77;;
3971;SDS011;2000;47.572;14.202;2023-03-01T16:10:18;22.73;;;8.90;;
3971;SDS011;2000;47.572;14.202;2023-03-01T16:12:45;14.83;;;5.50;;
3971;SDS011;2000;47.572;14.202;2023-03-01T16:15:15;13.57;;;5.03;;
3971;SDS011;2000;47.572;14.202;2023-03-01T16:17:44;20.90;;;7.00;;
3971;SDS011;2000;47.572;14.202;2023-03-01T16:20:11;34.83;;;7.50;;
3971;SDS011;2000;47.572;14.202;2023-03-01T16:22:51;23.73;;;6.73;;
3971;SDS011;2000;47.572;14.202;2023-03-01T16:25:19;8.70;;;5.60;;
3971;SDS011;2000;47.572;14.202;2023-03-01T16:27:47;15.03;;;6.27;;
3971;SDS011;2000;47.572;14.202;2023-03-01T16:30:16;13.13;;;4.87;;
3971;SDS011;2000;47.572;14.202;2023-03-01T16:32:46;12.60;;;5.80;;
3971;SDS011;2000;47.572;14.202;2023-03-01T16:35:15;13.67;;;5.40;;
3971;SDS011;2000;47.572;14.202;2023-03-01T16:37:44;15.27;;;6.37;;
3971;SDS011;2000;47.572;14.202;2023-03-01T16:40:16;24.70;;;5.40;;
3971;SDS011;2000;47.572;14.202;2023-03-01T16:42:45;14.63;;;7.43;;
3971;SDS011;2000;47.572;14.202;2023-03-01T16:45:12;28.93;;;10.53;;
3971;SDS011;2000;47.572;14.202;2023-03-01T16:47:50;36.63;;;11.27;;
3971;SDS011;2000;47.572;14.202;2023-03-01T16:50:20;33.10;;;9.87;;
3971;SDS011;2000;47.572;14.202;2023-03-01T16:52:47;23.03;;;8.10;;
3971;SDS011;2000;47.572;14.202;2023-03-01T16:55:14;18.80;;;7.20;;
3971;SDS011;2000;47.572;14.202;2023-03-01T16:57:41;15.60;;;6.67;;
3971;SDS011;2000;47.572;14.202;2023-03-01T17:00:08;19.40;;;6.87;;
3971;SDS011;2000;47.572;14.202;2023-03-01T17:02:37;14.27;;;8.23;;
3971;SDS011;2000;47.572;14.202;2023-03-01T17:05:04;14.30;;;7.03;;
3971;SDS011;2000;47.572;14.202;2023-03-01T17:07:32;11.80;;;4.87;;
3971;SDS011;2000;47.572;14.202;2023-03-01T17:10:02;24.60;;;7.77;;
3971;SDS011;2000;47.572;14.202;2023-03-01T17:12:30;19.17;;;8.90;;